createdAt,value
2018-11-07T00:00:51.818Z,88.03
2018-11-07T00:03:20.626Z,88.09
2018-11-07T00:05:49.126Z,88.04
2018-11-07T00:08:18.314Z,88.16
2018-11-07T00:10:46.745Z,88.10
2018-11-07T00:13:15.345Z,88.10
2018-11-07T00:15:44.526Z,87.75
2018-11-07T00:18:13.273Z,87.92
2018-11-07T00:20:41.727Z,88.08
2018-11-07T00:23:10.366Z,87.84
2018-11-07T00:25:39.305Z,87.73
2018-11-07T00:28:07.805Z,87.68
2018-11-07T00:30:36.634Z,87.95
2018-11-07T00:33:05.990Z,87.86
2018-11-07T00:35:34.438Z,87.79
2018-11-07T00:38:03.094Z,87.84
2018-11-07T00:40:31.622Z,87.79
2018-11-07T00:43:00.109Z,87.73
2018-11-07T00:45:29.362Z,87.46
2018-11-07T00:47:58.099Z,87.64
2018-11-07T00:50:26.548Z,87.79
2018-11-07T00:52:55.423Z,87.41
2018-11-07T00:55:24.154Z,87.52
2018-11-07T00:57:52.628Z,87.41
2018-11-07T01:00:21.605Z,87.04
2018-11-07T01:02:50.488Z,87.27
2018-11-07T01:05:18.940Z,87.42
2018-11-07T01:07:48.479Z,87.27
2018-11-07T01:10:17.029Z,87.54
2018-11-07T01:12:45.477Z,87.69
2018-11-07T01:15:14.818Z,87.52
2018-11-07T01:17:43.394Z,87.57
2018-11-07T01:20:13.625Z,87.40
2018-11-07T01:22:42.297Z,87.52
2018-11-07T01:25:11.166Z,87.39
2018-11-07T01:27:39.621Z,87.20
2018-11-07T01:30:10.364Z,87.16
2018-11-07T01:32:38.999Z,87.10
2018-11-07T01:35:07.697Z,87.02
2018-11-07T01:37:36.329Z,87.00
2018-11-07T01:40:10.598Z,87.13
2018-11-07T01:42:39.330Z,87.00
2018-11-07T01:45:08.912Z,87.13
2018-11-07T01:47:38.174Z,86.98
2018-11-07T01:50:08.286Z,86.92
2018-11-07T01:52:36.922Z,86.98
2018-11-07T01:55:05.877Z,87.08
2018-11-07T01:57:34.499Z,86.94
2018-11-07T02:00:02.966Z,86.85
2018-11-07T02:02:31.881Z,86.89
2018-11-07T02:05:00.710Z,87.05
2018-11-07T02:07:29.193Z,87.07
2018-11-07T02:09:58.602Z,86.90
2018-11-07T02:12:27.117Z,86.75
2018-11-07T02:14:55.617Z,86.86
2018-11-07T02:17:28.686Z,86.63
2018-11-07T02:19:57.286Z,86.37
2018-11-07T02:22:26.259Z,86.32
2018-11-07T02:24:55.489Z,86.46
2018-11-07T02:27:23.952Z,86.27
2018-11-07T02:29:52.385Z,86.28
2018-11-07T02:32:21.318Z,86.16
2018-11-07T02:34:49.757Z,86.37
2018-11-07T02:37:18.429Z,86.27
2018-11-07T02:39:47.078Z,86.35
2018-11-07T02:42:15.510Z,86.22
2018-11-07T02:44:43.985Z,86.34
2018-11-07T02:47:12.733Z,86.15
2018-11-07T02:49:41.178Z,86.13
2018-11-07T02:52:09.617Z,86.07
2018-11-07T02:54:38.237Z,86.22
2018-11-07T02:57:06.693Z,86.04
2018-11-07T02:59:35.130Z,85.94
2018-11-07T03:02:04.566Z,85.97
2018-11-07T03:04:33.022Z,85.79
2018-11-07T03:07:01.501Z,85.81
2018-11-07T03:09:30.145Z,86.11
2018-11-07T03:11:58.590Z,85.98
2018-11-07T03:14:27.039Z,85.73
2018-11-07T03:16:56.166Z,85.63
2018-11-07T03:19:24.783Z,85.63
2018-11-07T03:21:53.267Z,86.02
2018-11-07T03:24:22.745Z,85.76
2018-11-07T03:26:51.193Z,85.81
2018-11-07T03:29:19.639Z,85.93
2018-11-07T03:31:48.973Z,85.73
2018-11-07T03:34:17.469Z,85.79
2018-11-07T03:36:45.972Z,85.82
2018-11-07T03:39:14.718Z,85.84
2018-11-07T03:41:43.239Z,85.64
2018-11-07T03:44:11.998Z,85.84
2018-11-07T03:46:40.665Z,86.00
2018-11-07T03:49:09.138Z,85.57
2018-11-07T03:51:37.599Z,85.63
2018-11-07T03:54:06.616Z,85.57
2018-11-07T03:56:35.581Z,85.64
2018-11-07T03:59:04.054Z,85.69
2018-11-07T04:01:32.701Z,85.68
2018-11-07T04:04:01.154Z,85.74
2018-11-07T04:06:29.638Z,85.65
2018-11-07T04:08:58.509Z,85.64
2018-11-07T04:11:26.969Z,85.66
2018-11-07T04:13:55.443Z,85.67
2018-11-07T04:16:24.118Z,85.79
2018-11-07T04:18:52.594Z,85.65
2018-11-07T04:21:21.531Z,85.63
2018-11-07T04:23:55.553Z,85.82
2018-11-07T04:26:24.532Z,85.70
2018-11-07T04:28:52.980Z,85.57
2018-11-07T04:31:21.565Z,85.76
2018-11-07T04:33:50.292Z,85.75
2018-11-07T04:36:18.856Z,85.81
2018-11-07T04:38:47.602Z,85.68
2018-11-07T04:41:16.321Z,85.96
2018-11-07T04:43:45.132Z,85.54
2018-11-07T04:46:13.922Z,85.52
2018-11-07T04:48:43.019Z,85.56
2018-11-07T04:51:11.458Z,85.77
2018-11-07T04:53:40.391Z,85.60
2018-11-07T04:56:08.928Z,85.93
2018-11-07T04:58:37.423Z,85.72
2018-11-07T05:01:07.008Z,85.88
2018-11-07T05:03:36.017Z,85.62
2018-11-07T05:06:04.700Z,85.89
2018-11-07T05:08:33.632Z,85.72
2018-11-07T05:11:02.489Z,85.89
2018-11-07T05:13:31.173Z,85.78
2018-11-07T05:15:59.782Z,85.87
2018-11-07T05:18:28.677Z,85.65
2018-11-07T05:20:57.125Z,85.67
2018-11-07T05:23:26.151Z,85.59
2018-11-07T05:25:54.838Z,85.80
2018-11-07T05:28:23.279Z,85.71
2018-11-07T05:30:52.824Z,85.73
2018-11-07T05:33:21.585Z,85.65
2018-11-07T05:35:50.078Z,85.82
2018-11-07T05:38:18.627Z,86.07
2018-11-07T05:40:47.656Z,85.82
2018-11-07T05:43:16.113Z,86.06
2018-11-07T05:45:44.724Z,86.01
2018-11-07T05:48:13.649Z,86.08
2018-11-07T05:50:42.143Z,86.31
2018-11-07T05:53:10.705Z,85.89
2018-11-07T05:55:39.349Z,85.99
2018-11-07T05:58:07.805Z,86.24
2018-11-07T06:00:36.369Z,86.39
2018-11-07T06:03:05.118Z,86.23
2018-11-07T06:05:33.599Z,86.40
2018-11-07T06:08:02.526Z,86.42
2018-11-07T06:10:31.060Z,86.33
2018-11-07T06:12:59.497Z,86.54
2018-11-07T06:15:28.054Z,86.51
2018-11-07T06:17:56.596Z,86.38
2018-11-07T06:20:25.138Z,86.63
2018-11-07T06:22:53.752Z,86.68
2018-11-07T06:25:22.825Z,86.83
2018-11-07T06:27:51.444Z,86.71
2018-11-07T06:30:20.013Z,86.49
2018-11-07T06:32:48.574Z,86.55
2018-11-07T06:35:17.013Z,86.45
2018-11-07T06:37:45.792Z,86.45
2018-11-07T06:40:14.465Z,86.69
2018-11-07T06:42:42.919Z,86.46
2018-11-07T06:45:12.469Z,86.52
2018-11-07T06:47:41.152Z,86.19
2018-11-07T06:50:13.170Z,86.56
2018-11-07T06:52:41.698Z,86.63
2018-11-07T06:55:10.853Z,86.54
2018-11-07T06:57:40.191Z,86.57
2018-11-07T07:00:10.753Z,86.56
2018-11-07T07:02:39.386Z,86.26
2018-11-07T07:05:08.684Z,86.58
2018-11-07T07:07:38.778Z,86.43
2018-11-07T07:10:11.245Z,86.57
2018-11-07T07:12:39.810Z,86.50
2018-11-07T07:15:10.366Z,86.69
2018-11-07T07:17:39.467Z,86.59
2018-11-07T07:20:11.353Z,86.64
2018-11-07T07:22:40.812Z,86.74
2018-11-07T07:25:10.267Z,86.84
2018-11-07T07:27:39.145Z,86.67
2018-11-07T07:30:11.029Z,86.95
2018-11-07T07:32:40.016Z,86.65
2018-11-07T07:35:08.866Z,86.69
2018-11-07T07:37:37.558Z,86.83
2018-11-07T07:40:08.577Z,86.64
2018-11-07T07:42:37.407Z,86.58
2018-11-07T07:45:07.825Z,86.56
2018-11-07T07:47:36.745Z,86.74
2018-11-07T07:50:06.533Z,86.74
2018-11-07T07:52:35.058Z,86.71
2018-11-07T07:55:04.214Z,86.69
2018-11-07T07:57:32.659Z,86.34
2018-11-07T08:00:01.534Z,86.73
2018-11-07T08:02:30.292Z,86.40
2018-11-07T08:04:58.750Z,86.38
2018-11-07T08:07:27.753Z,86.22
2018-11-07T08:09:56.673Z,86.60
2018-11-07T08:12:25.142Z,86.47
2018-11-07T08:14:53.763Z,86.55
2018-11-07T08:17:22.346Z,86.31
2018-11-07T08:19:50.795Z,86.51
2018-11-07T08:22:19.493Z,86.28
2018-11-07T08:24:48.153Z,86.24
2018-11-07T08:27:16.609Z,86.25
2018-11-07T08:29:45.821Z,86.11
2018-11-07T08:32:14.602Z,86.39
2018-11-07T08:34:43.038Z,86.09
2018-11-07T08:37:11.645Z,86.31
2018-11-07T08:39:40.293Z,86.26
2018-11-07T08:42:08.755Z,86.31
2018-11-07T08:44:37.566Z,86.32
2018-11-07T08:47:06.670Z,86.07
2018-11-07T08:49:35.113Z,86.09
2018-11-07T08:52:03.857Z,86.04
2018-11-07T08:54:32.426Z,86.12
2018-11-07T08:57:00.978Z,86.23
2018-11-07T08:59:30.250Z,86.36
2018-11-07T09:01:59.057Z,86.21
2018-11-07T09:04:27.578Z,86.35
2018-11-07T09:06:56.409Z,85.97
2018-11-07T09:09:24.994Z,85.82
2018-11-07T09:11:53.472Z,86.19
2018-11-07T09:14:22.158Z,86.01
2018-11-07T09:16:50.745Z,86.00
2018-11-07T09:19:19.193Z,85.86
2018-11-07T09:21:47.720Z,85.70
2018-11-07T09:24:16.751Z,85.97
2018-11-07T09:26:45.201Z,85.90
2018-11-07T09:29:14.248Z,85.93
2018-11-07T09:31:43.689Z,85.80
2018-11-07T09:34:12.150Z,85.81
2018-11-07T09:36:40.681Z,85.75
2018-11-07T09:39:10.317Z,85.66
2018-11-07T09:41:38.797Z,85.59
2018-11-07T09:44:08.167Z,85.79
2018-11-07T09:46:36.905Z,85.69
2018-11-07T09:49:05.406Z,85.81
2018-11-07T09:51:34.590Z,85.77
2018-11-07T09:54:03.592Z,85.41
2018-11-07T09:56:32.167Z,85.56
2018-11-07T09:59:00.889Z,85.65
2018-11-07T10:01:29.743Z,85.47
2018-11-07T10:03:58.273Z,85.86
2018-11-07T10:06:27.589Z,85.83
2018-11-07T10:08:56.265Z,85.67
2018-11-07T10:11:24.953Z,85.67
2018-11-07T10:13:53.517Z,85.61
2018-11-07T10:16:22.391Z,85.48
2018-11-07T10:18:50.843Z,85.49
2018-11-07T10:21:19.634Z,85.57
2018-11-07T10:23:48.537Z,85.50
2018-11-07T10:26:17.076Z,85.52
2018-11-07T10:28:45.877Z,85.29
2018-11-07T10:31:14.482Z,85.59
2018-11-07T10:33:43.482Z,85.41
2018-11-07T10:36:12.034Z,85.71
2018-11-07T10:38:41.254Z,85.09
2018-11-07T10:41:09.585Z,85.37
2018-11-07T10:43:38.529Z,85.43
2018-11-07T10:46:07.586Z,85.53
2018-11-07T10:48:36.022Z,85.53
2018-11-07T10:51:04.841Z,85.45
2018-11-07T10:53:33.658Z,85.51
2018-11-07T10:56:02.214Z,85.38
2018-11-07T10:58:30.880Z,85.45
2018-11-07T11:01:04.690Z,85.45
2018-11-07T11:03:33.797Z,85.68
2018-11-07T11:06:02.308Z,85.43
2018-11-07T11:08:30.803Z,85.41
2018-11-07T11:11:00.451Z,85.45
2018-11-07T11:13:28.961Z,85.55
2018-11-07T11:18:32.936Z,85.69
2018-11-07T11:21:01.506Z,85.32
2018-11-07T11:23:30.345Z,85.42
2018-11-07T11:25:59.099Z,85.53
2018-11-07T11:28:27.593Z,85.65
2018-11-07T11:30:56.384Z,85.86
2018-11-07T11:33:25.215Z,85.57
2018-11-07T11:35:53.877Z,85.67
2018-11-07T11:38:22.845Z,85.81
2018-11-07T11:40:51.952Z,85.78
2018-11-07T11:43:20.634Z,85.99
2018-11-07T11:45:49.176Z,85.83
2018-11-07T11:48:17.972Z,85.78
2018-11-07T11:50:46.465Z,85.59
2018-11-07T11:53:15.180Z,85.53
2018-11-07T11:55:43.736Z,85.28
2018-11-07T11:58:12.238Z,85.47
2018-11-07T12:00:40.951Z,85.47
2018-11-07T12:03:09.521Z,85.95
2018-11-07T12:05:37.987Z,85.81
2018-11-07T12:08:06.702Z,85.99
2018-11-07T12:10:35.230Z,85.95
2018-11-07T12:13:03.716Z,85.70
2018-11-07T12:15:32.288Z,86.06
2018-11-07T12:18:01.162Z,86.02
2018-11-07T12:20:29.642Z,86.00
2018-11-07T12:22:58.202Z,86.14
2018-11-07T12:25:27.220Z,86.35
2018-11-07T12:27:55.703Z,86.20
2018-11-07T12:30:25.443Z,86.10
2018-11-07T12:32:54.889Z,86.17
2018-11-07T12:35:23.801Z,86.37
2018-11-07T12:37:52.738Z,86.43
2018-11-07T12:40:21.861Z,86.31
2018-11-07T12:42:50.465Z,86.63
2018-11-07T12:45:19.465Z,86.67
2018-11-07T12:47:48.071Z,86.62
2018-11-07T12:50:18.536Z,86.73
2018-11-07T12:52:47.395Z,86.69
2018-11-07T12:55:16.114Z,86.89
2018-11-07T12:57:44.772Z,86.92
2018-11-07T13:00:16.801Z,86.59
2018-11-07T13:02:45.621Z,86.61
2018-11-07T13:05:15.354Z,86.73
2018-11-07T13:07:45.024Z,87.13
2018-11-07T13:10:14.922Z,86.90
2018-11-07T13:12:44.389Z,87.09
2018-11-07T13:15:13.767Z,87.00
2018-11-07T13:17:42.587Z,86.77
2018-11-07T13:20:13.650Z,86.85
2018-11-07T13:22:42.794Z,87.18
2018-11-07T13:25:12.245Z,87.18
2018-11-07T13:27:40.766Z,87.33
2018-11-07T13:30:11.945Z,87.05
2018-11-07T13:32:40.911Z,87.12
2018-11-07T13:35:10.376Z,87.09
2018-11-07T13:37:39.931Z,86.92
2018-11-07T13:40:12.134Z,87.22
2018-11-07T13:42:40.982Z,87.20
2018-11-07T13:45:11.502Z,87.06
2018-11-07T13:47:40.977Z,87.01
2018-11-07T13:50:10.232Z,87.08
2018-11-07T13:52:38.701Z,87.14
2018-11-07T13:55:08.908Z,87.49
2018-11-07T13:57:38.321Z,87.32
2018-11-07T14:00:10.894Z,87.54
2018-11-07T14:02:39.841Z,87.22
2018-11-07T14:05:09.458Z,87.29
2018-11-07T14:07:38.094Z,87.43
2018-11-07T14:10:09.427Z,87.38
2018-11-07T14:12:38.048Z,87.46
2018-11-07T14:15:08.767Z,87.34
2018-11-07T14:17:37.742Z,87.53
2018-11-07T14:20:07.104Z,87.55
2018-11-07T14:22:35.670Z,87.55
2018-11-07T14:25:04.565Z,87.73
2018-11-07T14:27:33.543Z,87.59
2018-11-07T14:30:02.239Z,87.56
2018-11-07T14:32:31.214Z,87.67
2018-11-07T14:34:59.964Z,87.80
2018-11-07T14:37:28.534Z,87.83
2018-11-07T14:39:56.992Z,87.71
2018-11-07T14:42:25.862Z,87.88
2018-11-07T14:44:54.559Z,87.90
2018-11-07T14:47:23.146Z,87.92
2018-11-07T14:49:52.074Z,87.99
2018-11-07T14:52:20.820Z,88.14
2018-11-07T14:54:49.385Z,88.04
2018-11-07T14:57:17.994Z,88.21
2018-11-07T14:59:46.680Z,88.18
2018-11-07T15:02:15.132Z,88.24
2018-11-07T15:04:43.951Z,88.23
2018-11-07T15:07:13.434Z,88.23
2018-11-07T15:09:41.877Z,88.28
2018-11-07T15:12:10.551Z,88.48
2018-11-07T15:14:39.291Z,88.36
2018-11-07T15:17:07.834Z,88.42
2018-11-07T15:19:36.671Z,88.38
2018-11-07T15:22:05.946Z,88.36
2018-11-07T15:24:34.395Z,88.53
2018-11-07T15:27:03.443Z,88.40
2018-11-07T15:29:32.024Z,88.57
2018-11-07T15:32:00.481Z,88.66
2018-11-07T15:34:29.074Z,88.79
2018-11-07T15:36:57.761Z,88.61
2018-11-07T15:39:26.573Z,88.78
2018-11-07T15:41:55.264Z,88.66
2018-11-07T15:44:24.438Z,88.54
2018-11-07T15:46:53.060Z,88.70
2018-11-07T15:49:21.759Z,88.78
2018-11-07T15:51:54.285Z,88.87
2018-11-07T15:54:23.164Z,88.83
2018-11-07T15:56:51.999Z,88.64
2018-11-07T15:59:20.457Z,88.54
2018-11-07T16:01:49.183Z,88.61
2018-11-07T16:04:17.722Z,88.83
2018-11-07T16:06:46.214Z,88.68
2018-11-07T16:09:15.238Z,88.69
2018-11-07T16:11:43.859Z,88.75
2018-11-07T16:14:12.316Z,88.69
2018-11-07T16:16:41.289Z,88.52
2018-11-07T16:19:09.824Z,88.89
2018-11-07T16:21:38.325Z,88.55
2018-11-07T16:24:06.982Z,88.86
2018-11-07T16:26:35.497Z,88.47
2018-11-07T16:29:03.984Z,88.69
2018-11-07T16:31:32.801Z,88.87
2018-11-07T16:34:01.522Z,88.66
2018-11-07T16:36:30.422Z,88.71
2018-11-07T16:38:59.518Z,88.81
2018-11-07T16:41:28.319Z,88.76
2018-11-07T16:43:56.701Z,88.86
2018-11-07T16:46:25.498Z,88.74
2018-11-07T16:48:54.069Z,88.81
2018-11-07T16:51:22.636Z,88.78
2018-11-07T16:53:51.205Z,88.70
2018-11-07T16:56:19.763Z,88.75
2018-11-07T16:58:48.388Z,88.89
2018-11-07T17:01:17.326Z,89.02
2018-11-07T17:03:45.933Z,88.73
2018-11-07T17:06:14.464Z,88.81
2018-11-07T17:08:43.061Z,89.00
2018-11-07T17:11:11.634Z,88.81
2018-11-07T17:13:40.120Z,88.61
2018-11-07T17:16:08.714Z,89.01
2018-11-07T17:18:37.319Z,88.77
2018-11-07T17:21:05.839Z,88.78
2018-11-07T17:23:34.630Z,88.93
2018-11-07T17:26:03.313Z,88.90
2018-11-07T17:28:31.753Z,88.95
2018-11-07T17:31:00.429Z,88.90
2018-11-07T17:33:29.452Z,88.88
2018-11-07T17:35:58.053Z,88.85
2018-11-07T17:38:26.811Z,89.08
2018-11-07T17:40:55.929Z,89.01
2018-11-07T17:43:31.417Z,89.21
2018-11-07T17:45:59.976Z,89.00
2018-11-07T17:48:28.623Z,88.85
2018-11-07T17:50:57.185Z,88.82
2018-11-07T17:53:25.936Z,88.91
2018-11-07T17:55:54.603Z,89.12
2018-11-07T17:58:23.273Z,88.95
2018-11-07T18:00:51.893Z,88.78
2018-11-07T18:03:20.378Z,88.71
2018-11-07T18:05:49.288Z,88.78
2018-11-07T18:08:18.024Z,88.95
2018-11-07T18:10:46.522Z,88.97
2018-11-07T18:13:15.711Z,89.03
2018-11-07T18:15:44.708Z,89.17
2018-11-07T18:18:13.206Z,88.89
2018-11-07T18:20:41.853Z,88.94
2018-11-07T18:23:10.762Z,88.75
2018-11-07T18:25:39.332Z,88.81
2018-11-07T18:28:08.126Z,89.17
2018-11-07T18:30:36.685Z,88.74
2018-11-07T18:33:05.900Z,89.07
2018-11-07T18:35:34.792Z,88.97
2018-11-07T18:38:03.449Z,88.88
2018-11-07T18:40:32.010Z,89.00
2018-11-07T18:43:00.791Z,88.87
2018-11-07T18:45:29.356Z,88.88
2018-11-07T18:47:57.919Z,88.84
2018-11-07T18:50:26.757Z,88.85
2018-11-07T18:52:55.444Z,88.79
2018-11-07T18:55:24.072Z,88.87
2018-11-07T18:57:53.291Z,88.54
2018-11-07T19:00:21.945Z,89.00
2018-11-07T19:02:51.073Z,88.59
2018-11-07T19:05:19.871Z,88.68
2018-11-07T19:07:48.652Z,88.93
2018-11-07T19:10:18.550Z,88.93
2018-11-07T19:12:48.122Z,89.00
2018-11-07T19:15:17.196Z,88.96
2018-11-07T19:17:46.625Z,88.90
2018-11-07T19:20:16.231Z,88.93
2018-11-07T19:22:44.899Z,89.15
2018-11-07T19:25:14.762Z,88.82
2018-11-07T19:27:43.643Z,89.00
2018-11-07T19:30:19.369Z,88.74
2018-11-07T19:32:49.265Z,89.05
2018-11-07T19:35:18.491Z,89.05
2018-11-07T19:37:47.757Z,88.92
2018-11-07T19:40:17.900Z,88.93
2018-11-07T19:42:47.573Z,88.83
2018-11-07T19:45:17.419Z,88.92
2018-11-07T19:47:46.117Z,88.84
2018-11-07T19:50:15.685Z,89.03
2018-11-07T19:52:45.242Z,88.96
2018-11-07T19:55:17.350Z,88.83
2018-11-07T19:57:48.041Z,88.83
2018-11-07T20:00:17.544Z,88.74
2018-11-07T20:02:46.989Z,88.89
2018-11-07T20:05:15.767Z,88.77
2018-11-07T20:07:44.459Z,88.68
2018-11-07T20:10:16.167Z,88.83
2018-11-07T20:12:45.026Z,88.66
2018-11-07T20:15:14.780Z,88.75
2018-11-07T20:17:44.498Z,88.81
2018-11-07T20:20:13.502Z,88.79
2018-11-07T20:22:42.040Z,88.96
2018-11-07T20:25:11.765Z,89.04
2018-11-07T20:27:40.502Z,88.81
2018-11-07T20:30:10.882Z,88.79
2018-11-07T20:32:39.832Z,88.91
2018-11-07T20:35:10.489Z,88.84
2018-11-07T20:37:39.078Z,88.88
2018-11-07T20:40:11.120Z,88.74
2018-11-07T20:42:39.956Z,89.03
2018-11-07T20:45:09.422Z,88.65
2018-11-07T20:47:44.710Z,89.01
2018-11-07T20:50:15.714Z,88.77
2018-11-07T20:52:45.285Z,88.88
2018-11-07T20:55:14.434Z,88.81
2018-11-07T20:57:42.995Z,88.67
2018-11-07T21:00:15.167Z,88.87
2018-11-07T21:02:44.259Z,88.88
2018-11-07T21:05:13.039Z,88.57
2018-11-07T21:07:42.179Z,88.66
2018-11-07T21:10:13.469Z,88.52
2018-11-07T21:12:42.622Z,88.66
2018-11-07T21:15:12.397Z,88.65
2018-11-07T21:17:41.810Z,88.76
2018-11-07T21:20:10.401Z,88.64
2018-11-07T21:22:39.669Z,88.71
2018-11-07T21:25:08.613Z,88.78
2018-11-07T21:27:37.322Z,88.51
2018-11-07T21:30:08.766Z,88.78
2018-11-07T21:32:37.826Z,88.54
2018-11-07T21:35:06.750Z,88.66
2018-11-07T21:37:35.477Z,88.72
2018-11-07T21:40:04.578Z,88.74
2018-11-07T21:42:33.130Z,88.49
2018-11-07T21:45:01.824Z,88.62
2018-11-07T21:47:30.854Z,88.61
2018-11-07T21:49:59.342Z,88.69
2018-11-07T21:52:28.469Z,88.78
2018-11-07T21:54:57.676Z,88.56
2018-11-07T21:57:26.133Z,89.00
2018-11-07T21:59:54.693Z,88.75
2018-11-07T22:02:23.668Z,89.02
2018-11-07T22:04:52.112Z,89.21
2018-11-07T22:07:20.891Z,88.69
2018-11-07T22:09:49.640Z,88.77
2018-11-07T22:12:18.148Z,89.05
2018-11-07T22:14:47.260Z,88.95
2018-11-07T22:17:16.294Z,88.95
2018-11-07T22:19:44.797Z,88.93
2018-11-07T22:22:13.673Z,89.04
2018-11-07T22:24:42.538Z,88.86
2018-11-07T22:27:11.070Z,88.95
2018-11-07T22:29:39.713Z,88.88
2018-11-07T22:32:08.477Z,88.75
2018-11-07T22:34:37.062Z,88.90
2018-11-07T22:37:05.913Z,88.90
2018-11-07T22:39:34.554Z,89.06
2018-11-07T22:42:03.278Z,88.96
2018-11-07T22:44:31.928Z,88.79
2018-11-07T22:47:01.567Z,89.09
2018-11-07T22:49:30.018Z,88.96
2018-11-07T22:51:58.778Z,89.01
2018-11-07T22:54:27.399Z,88.91
2018-11-07T22:56:56.401Z,88.94
2018-11-07T22:59:24.970Z,88.43
2018-11-07T23:01:53.625Z,88.84
2018-11-07T23:04:22.057Z,88.85
2018-11-07T23:06:50.877Z,88.87
2018-11-07T23:09:19.488Z,88.71
2018-11-07T23:11:48.034Z,88.78
2018-11-07T23:14:17.237Z,88.57
2018-11-07T23:16:46.019Z,88.81
2018-11-07T23:19:14.503Z,88.92
2018-11-07T23:21:43.304Z,89.16
2018-11-07T23:24:12.406Z,88.93
2018-11-07T23:26:40.877Z,89.00
2018-11-07T23:29:09.663Z,88.91
2018-11-07T23:31:38.699Z,88.94
2018-11-07T23:34:07.174Z,89.03
2018-11-07T23:36:36.022Z,89.06
2018-11-07T23:39:07.016Z,88.87
2018-11-07T23:41:35.463Z,89.05
2018-11-07T23:44:04.265Z,88.86
2018-11-07T23:46:32.934Z,89.06
2018-11-07T23:49:01.417Z,88.64
2018-11-07T23:51:29.995Z,88.64
2018-11-07T23:53:58.805Z,88.76
2018-11-07T23:56:27.254Z,89.14
2018-11-07T23:58:56.646Z,89.01
